sensor_id;sensor_type;location;lat;lon;timestamp;temperature;humidity
4518;DHT22;2271;49.464;11.070;2023-06-22T00:00:57;21.90;99.90
4518;DHT22;2271;49.464;11.070;2023-06-22T00:03:24;21.80;99.90
4518;DHT22;2271;49.464;11.070;2023-06-22T00:05:50;21.90;99.90
4518;DHT22;2271;49.464;11.070;2023-06-22T00:08:16;21.90;99.90
4518;DHT22;2271;49.464;11.070;2023-06-22T00:10:43;21.80;99.90
4518;DHT22;2271;49.464;11.070;2023-06-22T00:13:09;21.90;99.90
4518;DHT22;2271;49.464;11.070;2023-06-22T00:15:36;21.90;99.90
4518;DHT22;2271;49.464;11.070;2023-06-22T00:18:03;21.90;99.90
4518;DHT22;2271;49.464;11.070;2023-06-22T00:20:29;21.90;99.90
4518;DHT22;2271;49.464;11.070;2023-06-22T00:22:56;21.90;99.90
4518;DHT22;2271;49.464;11.070;2023-06-22T00:25:22;21.80;99.90
4518;DHT22;2271;49.464;11.070;2023-06-22T00:27:48;21.80;99.90
4518;DHT22;2271;49.464;11.070;2023-06-22T00:30:16;21.80;99.90
4518;DHT22;2271;49.464;11.070;2023-06-22T00:32:42;21.80;99.90
4518;DHT22;2271;49.464;11.070;2023-06-22T00:35:08;21.80;99.90
4518;DHT22;2271;49.464;11.070;2023-06-22T00:37:35;21.80;99.90
4518;DHT22;2271;49.464;11.070;2023-06-22T00:40:02;21.80;99.90
4518;DHT22;2271;49.464;11.070;2023-06-22T00:42:30;21.90;99.90
4518;DHT22;2271;49.464;11.070;2023-06-22T00:44:55;21.80;99.90
4518;DHT22;2271;49.464;11.070;2023-06-22T00:47:21;21.80;99.90
4518;DHT22;2271;49.464;11.070;2023-06-22T00:49:48;21.80;99.90
4518;DHT22;2271;49.464;11.070;2023-06-22T00:52:17;21.70;99.90
4518;DHT22;2271;49.464;11.070;2023-06-22T00:54:51;21.70;99.90
4518;DHT22;2271;49.464;11.070;2023-06-22T00:57:17;21.70;99.90
4518;DHT22;2271;49.464;11.070;2023-06-22T00:59:44;21.70;99.90
4518;DHT22;2271;49.464;11.070;2023-06-22T01:02:10;21.70;99.90
4518;DHT22;2271;49.464;11.070;2023-06-22T01:04:38;21.70;99.90
4518;DHT22;2271;49.464;11.070;2023-06-22T01:09:59;21.60;99.90
4518;DHT22;2271;49.464;11.070;2023-06-22T01:12:29;21.70;99.90
4518;DHT22;2271;49.464;11.070;2023-06-22T01:15:05;21.70;99.90
4518;DHT22;2271;49.464;11.070;2023-06-22T01:17:32;21.60;99.90
4518;DHT22;2271;49.464;11.070;2023-06-22T01:20:00;21.50;99.90
4518;DHT22;2271;49.464;11.070;2023-06-22T01:22:31;21.50;99.90
4518;DHT22;2271;49.464;11.070;2023-06-22T01:25:09;21.40;99.90
4518;DHT22;2271;49.464;11.070;2023-06-22T01:28:11;21.30;99.90
4518;DHT22;2271;49.464;11.070;2023-06-22T01:30:45;21.30;99.90
4518;DHT22;2271;49.464;11.070;2023-06-22T01:33:13;21.30;99.90
4518;DHT22;2271;49.464;11.070;2023-06-22T01:35:40;21.30;99.90
4518;DHT22;2271;49.464;11.070;2023-06-22T01:38:06;21.30;99.90
4518;DHT22;2271;49.464;11.070;2023-06-22T01:40:34;21.40;99.90
4518;DHT22;2271;49.464;11.070;2023-06-22T01:43:01;21.40;99.90
4518;DHT22;2271;49.464;11.070;2023-06-22T01:45:27;21.30;99.90
4518;DHT22;2271;49.464;11.070;2023-06-22T01:47:54;21.40;99.90
4518;DHT22;2271;49.464;11.070;2023-06-22T01:50:21;21.40;99.90
4518;DHT22;2271;49.464;11.070;2023-06-22T01:52:47;21.40;99.90
4518;DHT22;2271;49.464;11.070;2023-06-22T01:55:12;21.30;99.90
4518;DHT22;2271;49.464;11.070;2023-06-22T01:57:38;21.20;99.90
4518;DHT22;2271;49.464;11.070;2023-06-22T02:00:10;21.20;99.90
4518;DHT22;2271;49.464;11.070;2023-06-22T02:02:57;21.20;99.90
4518;DHT22;2271;49.464;11.070;2023-06-22T02:05:26;21.10;99.90
4518;DHT22;2271;49.464;11.070;2023-06-22T02:08:06;21.10;99.90
4518;DHT22;2271;49.464;11.070;2023-06-22T02:10:34;21.10;99.90
4518;DHT22;2271;49.464;11.070;2023-06-22T02:13:01;21.10;99.90
4518;DHT22;2271;49.464;11.070;2023-06-22T02:15:28;21.10;99.90
4518;DHT22;2271;49.464;11.070;2023-06-22T02:17:54;21.10;99.90
4518;DHT22;2271;49.464;11.070;2023-06-22T02:20:19;21.00;99.90
4518;DHT22;2271;49.464;11.070;2023-06-22T02:22:45;21.00;99.90
4518;DHT22;2271;49.464;11.070;2023-06-22T02:25:11;21.00;99.90
4518;DHT22;2271;49.464;11.070;2023-06-22T02:27:37;20.90;99.90
4518;DHT22;2271;49.464;11.070;2023-06-22T02:30:09;20.90;99.90
4518;DHT22;2271;49.464;11.070;2023-06-22T02:32:35;20.90;99.90
4518;DHT22;2271;49.464;11.070;2023-06-22T02:35:01;20.80;99.90
4518;DHT22;2271;49.464;11.070;2023-06-22T02:37:31;20.80;99.90
4518;DHT22;2271;49.464;11.070;2023-06-22T02:39:56;20.80;99.90
4518;DHT22;2271;49.464;11.070;2023-06-22T02:42:22;20.90;99.90
4518;DHT22;2271;49.464;11.070;2023-06-22T02:44:48;20.90;99.90
4518;DHT22;2271;49.464;11.070;2023-06-22T02:47:13;21.00;99.90
4518;DHT22;2271;49.464;11.070;2023-06-22T02:49:39;21.10;99.90
4518;DHT22;2271;49.464;11.070;2023-06-22T02:52:05;21.20;99.90
4518;DHT22;2271;49.464;11.070;2023-06-22T02:54:31;21.30;99.90
4518;DHT22;2271;49.464;11.070;2023-06-22T02:56:56;21.40;99.90
4518;DHT22;2271;49.464;11.070;2023-06-22T02:59:22;21.50;99.90
4518;DHT22;2271;49.464;11.070;2023-06-22T03:01:51;21.60;99.90
4518;DHT22;2271;49.464;11.070;2023-06-22T03:04:18;21.60;99.90
4518;DHT22;2271;49.464;11.070;2023-06-22T03:06:43;21.60;99.90
4518;DHT22;2271;49.464;11.070;2023-06-22T03:09:09;21.60;99.90
4518;DHT22;2271;49.464;11.070;2023-06-22T03:11:35;21.70;99.90
4518;DHT22;2271;49.464;11.070;2023-06-22T03:14:01;21.60;99.90
4518;DHT22;2271;49.464;11.070;2023-06-22T03:16:27;21.50;99.90
4518;DHT22;2271;49.464;11.070;2023-06-22T03:18:53;21.40;99.90
4518;DHT22;2271;49.464;11.070;2023-06-22T03:21:21;21.20;99.90
4518;DHT22;2271;49.464;11.070;2023-06-22T03:23:47;20.80;99.90
4518;DHT22;2271;49.464;11.070;2023-06-22T03:26:12;20.60;99.90
4518;DHT22;2271;49.464;11.070;2023-06-22T03:28:38;20.50;99.90
4518;DHT22;2271;49.464;11.070;2023-06-22T03:31:04;20.40;99.90
4518;DHT22;2271;49.464;11.070;2023-06-22T03:33:32;20.20;99.90
4518;DHT22;2271;49.464;11.070;2023-06-22T03:35:57;20.10;99.90
4518;DHT22;2271;49.464;11.070;2023-06-22T03:38:23;20.00;99.90
4518;DHT22;2271;49.464;11.070;2023-06-22T03:40:49;20.10;99.90
4518;DHT22;2271;49.464;11.070;2023-06-22T03:43:14;20.20;99.90
4518;DHT22;2271;49.464;11.070;2023-06-22T03:45:40;20.60;99.90
4518;DHT22;2271;49.464;11.070;2023-06-22T03:48:06;20.90;99.90
4518;DHT22;2271;49.464;11.070;2023-06-22T03:50:31;21.20;99.90
4518;DHT22;2271;49.464;11.070;2023-06-22T03:52:57;21.20;99.90
4518;DHT22;2271;49.464;11.070;2023-06-22T03:55:23;21.00;99.90
4518;DHT22;2271;49.464;11.070;2023-06-22T03:57:48;21.00;99.90
4518;DHT22;2271;49.464;11.070;2023-06-22T04:00:14;21.20;99.90
4518;DHT22;2271;49.464;11.070;2023-06-22T04:02:41;21.10;99.90
4518;DHT22;2271;49.464;11.070;2023-06-22T04:05:09;21.20;99.90
4518;DHT22;2271;49.464;11.070;2023-06-22T04:07:35;21.60;99.90
4518;DHT22;2271;49.464;11.070;2023-06-22T04:10:05;21.70;99.90
4518;DHT22;2271;49.464;11.070;2023-06-22T04:12:31;22.00;99.90
4518;DHT22;2271;49.464;11.070;2023-06-22T04:14:56;22.20;99.90
4518;DHT22;2271;49.464;11.070;2023-06-22T04:17:22;22.10;99.90
4518;DHT22;2271;49.464;11.070;2023-06-22T04:19:50;21.80;99.90
4518;DHT22;2271;49.464;11.070;2023-06-22T04:22:16;21.70;99.90
4518;DHT22;2271;49.464;11.070;2023-06-22T04:24:41;21.80;99.90
4518;DHT22;2271;49.464;11.070;2023-06-22T04:27:07;21.40;99.90
4518;DHT22;2271;49.464;11.070;2023-06-22T04:29:33;20.90;99.90
4518;DHT22;2271;49.464;11.070;2023-06-22T04:31:58;20.80;99.90
4518;DHT22;2271;49.464;11.070;2023-06-22T04:34:28;21.00;99.90
4518;DHT22;2271;49.464;11.070;2023-06-22T04:36:54;20.90;99.90
4518;DHT22;2271;49.464;11.070;2023-06-22T04:39:20;20.80;99.90
4518;DHT22;2271;49.464;11.070;2023-06-22T04:41:46;20.80;99.90
4518;DHT22;2271;49.464;11.070;2023-06-22T04:44:16;20.80;99.90
4518;DHT22;2271;49.464;11.070;2023-06-22T04:46:59;21.00;99.90
4518;DHT22;2271;49.464;11.070;2023-06-22T04:49:34;21.10;99.90
4518;DHT22;2271;49.464;11.070;2023-06-22T04:52:07;21.40;99.90
4518;DHT22;2271;49.464;11.070;2023-06-22T04:54:34;21.30;99.90
4518;DHT22;2271;49.464;11.070;2023-06-22T04:57:05;20.80;99.90
4518;DHT22;2271;49.464;11.070;2023-06-22T04:59:36;20.70;99.90
4518;DHT22;2271;49.464;11.070;2023-06-22T05:02:02;20.50;99.90
4518;DHT22;2271;49.464;11.070;2023-06-22T05:04:29;20.50;99.90
4518;DHT22;2271;49.464;11.070;2023-06-22T05:06:57;20.40;99.90
4518;DHT22;2271;49.464;11.070;2023-06-22T05:09:23;20.60;99.90
4518;DHT22;2271;49.464;11.070;2023-06-22T05:11:50;20.70;99.90
4518;DHT22;2271;49.464;11.070;2023-06-22T05:14:16;20.60;99.90
4518;DHT22;2271;49.464;11.070;2023-06-22T05:16:42;20.60;99.90
4518;DHT22;2271;49.464;11.070;2023-06-22T05:19:08;20.90;99.90
4518;DHT22;2271;49.464;11.070;2023-06-22T05:21:34;21.20;99.90
4518;DHT22;2271;49.464;11.070;2023-06-22T05:24:00;21.30;99.90
4518;DHT22;2271;49.464;11.070;2023-06-22T05:26:32;21.10;99.90
4518;DHT22;2271;49.464;11.070;2023-06-22T05:28:58;21.40;99.90
4518;DHT22;2271;49.464;11.070;2023-06-22T05:31:25;21.60;99.90
4518;DHT22;2271;49.464;11.070;2023-06-22T05:33:52;21.80;99.90
4518;DHT22;2271;49.464;11.070;2023-06-22T05:36:19;21.80;99.90
4518;DHT22;2271;49.464;11.070;2023-06-22T05:38:50;21.80;99.90
4518;DHT22;2271;49.464;11.070;2023-06-22T05:41:16;21.80;99.90
4518;DHT22;2271;49.464;11.070;2023-06-22T05:43:42;21.90;99.90
4518;DHT22;2271;49.464;11.070;2023-06-22T05:46:07;22.10;99.90
4518;DHT22;2271;49.464;11.070;2023-06-22T05:48:33;22.10;99.90
4518;DHT22;2271;49.464;11.070;2023-06-22T05:50:59;22.20;99.90
4518;DHT22;2271;49.464;11.070;2023-06-22T05:53:24;22.40;99.90
4518;DHT22;2271;49.464;11.070;2023-06-22T05:55:50;22.40;99.90
4518;DHT22;2271;49.464;11.070;2023-06-22T05:58:16;22.50;99.90
4518;DHT22;2271;49.464;11.070;2023-06-22T06:00:42;22.60;99.90
4518;DHT22;2271;49.464;11.070;2023-06-22T06:03:09;22.60;99.90
4518;DHT22;2271;49.464;11.070;2023-06-22T06:05:35;22.60;99.90
4518;DHT22;2271;49.464;11.070;2023-06-22T06:08:03;22.90;99.90
4518;DHT22;2271;49.464;11.070;2023-06-22T06:10:31;23.00;99.90
4518;DHT22;2271;49.464;11.070;2023-06-22T06:12:56;23.30;99.90
4518;DHT22;2271;49.464;11.070;2023-06-22T06:15:22;23.50;99.90
4518;DHT22;2271;49.464;11.070;2023-06-22T06:17:48;23.50;99.90
4518;DHT22;2271;49.464;11.070;2023-06-22T06:20:15;23.60;99.90
4518;DHT22;2271;49.464;11.070;2023-06-22T06:22:41;23.80;99.90
4518;DHT22;2271;49.464;11.070;2023-06-22T06:25:08;23.80;99.90
4518;DHT22;2271;49.464;11.070;2023-06-22T06:27:34;23.80;99.90
4518;DHT22;2271;49.464;11.070;2023-06-22T06:30:00;24.10;99.90
4518;DHT22;2271;49.464;11.070;2023-06-22T06:32:25;24.10;99.90
4518;DHT22;2271;49.464;11.070;2023-06-22T06:34:51;24.30;99.90
4518;DHT22;2271;49.464;11.070;2023-06-22T06:37:17;24.40;99.90
4518;DHT22;2271;49.464;11.070;2023-06-22T06:39:44;24.60;99.90
4518;DHT22;2271;49.464;11.070;2023-06-22T06:42:09;24.60;99.90
4518;DHT22;2271;49.464;11.070;2023-06-22T06:44:36;24.70;99.90
4518;DHT22;2271;49.464;11.070;2023-06-22T06:47:04;24.90;99.90
4518;DHT22;2271;49.464;11.070;2023-06-22T06:49:29;24.80;99.90
4518;DHT22;2271;49.464;11.070;2023-06-22T06:51:56;24.90;99.90
4518;DHT22;2271;49.464;11.070;2023-06-22T06:54:22;25.00;99.90
4518;DHT22;2271;49.464;11.070;2023-06-22T06:56:48;24.90;99.90
4518;DHT22;2271;49.464;11.070;2023-06-22T06:59:14;25.10;99.90
4518;DHT22;2271;49.464;11.070;2023-06-22T07:01:41;25.00;99.90
4518;DHT22;2271;49.464;11.070;2023-06-22T07:04:07;25.10;99.90
4518;DHT22;2271;49.464;11.070;2023-06-22T07:06:32;25.30;99.90
4518;DHT22;2271;49.464;11.070;2023-06-22T07:08:59;25.50;99.90
4518;DHT22;2271;49.464;11.070;2023-06-22T07:11:25;25.70;99.90
4518;DHT22;2271;49.464;11.070;2023-06-22T07:13:50;25.70;99.90
4518;DHT22;2271;49.464;11.070;2023-06-22T07:16:16;25.80;99.90
4518;DHT22;2271;49.464;11.070;2023-06-22T07:18:42;25.90;99.90
4518;DHT22;2271;49.464;11.070;2023-06-22T07:21:07;26.20;99.90
4518;DHT22;2271;49.464;11.070;2023-06-22T07:23:33;26.30;99.90
4518;DHT22;2271;49.464;11.070;2023-06-22T07:25:59;26.10;99.90
4518;DHT22;2271;49.464;11.070;2023-06-22T07:28:27;26.20;99.90
4518;DHT22;2271;49.464;11.070;2023-06-22T07:30:53;26.40;99.90
4518;DHT22;2271;49.464;11.070;2023-06-22T07:33:19;26.50;99.90
4518;DHT22;2271;49.464;11.070;2023-06-22T07:35:45;26.60;99.90
4518;DHT22;2271;49.464;11.070;2023-06-22T07:38:11;26.50;99.90
4518;DHT22;2271;49.464;11.070;2023-06-22T07:40:37;26.60;99.90
4518;DHT22;2271;49.464;11.070;2023-06-22T07:43:03;26.80;99.90
4518;DHT22;2271;49.464;11.070;2023-06-22T07:45:29;27.00;99.90
4518;DHT22;2271;49.464;11.070;2023-06-22T07:47:55;27.10;99.90
4518;DHT22;2271;49.464;11.070;2023-06-22T07:50:20;27.30;99.90
4518;DHT22;2271;49.464;11.070;2023-06-22T07:52:46;27.40;99.90
4518;DHT22;2271;49.464;11.070;2023-06-22T07:55:13;27.60;99.90
4518;DHT22;2271;49.464;11.070;2023-06-22T07:57:39;27.80;99.90
4518;DHT22;2271;49.464;11.070;2023-06-22T08:00:07;28.00;99.90
4518;DHT22;2271;49.464;11.070;2023-06-22T08:02:41;28.10;99.90
4518;DHT22;2271;49.464;11.070;2023-06-22T08:05:09;28.10;99.90
4518;DHT22;2271;49.464;11.070;2023-06-22T08:07:35;28.10;99.90
4518;DHT22;2271;49.464;11.070;2023-06-22T08:10:03;28.20;99.90
4518;DHT22;2271;49.464;11.070;2023-06-22T08:12:29;28.40;99.90
4518;DHT22;2271;49.464;11.070;2023-06-22T08:14:55;28.50;99.90
4518;DHT22;2271;49.464;11.070;2023-06-22T08:17:23;28.60;99.90
4518;DHT22;2271;49.464;11.070;2023-06-22T08:19:48;28.70;99.90
4518;DHT22;2271;49.464;11.070;2023-06-22T08:22:15;28.70;99.90
4518;DHT22;2271;49.464;11.070;2023-06-22T08:24:40;28.80;99.90
4518;DHT22;2271;49.464;11.070;2023-06-22T08:27:10;28.90;99.90
4518;DHT22;2271;49.464;11.070;2023-06-22T08:29:39;28.90;99.90
4518;DHT22;2271;49.464;11.070;2023-06-22T08:32:04;29.00;99.90
4518;DHT22;2271;49.464;11.070;2023-06-22T08:34:30;29.10;99.90
4518;DHT22;2271;49.464;11.070;2023-06-22T08:36:56;29.20;99.90
4518;DHT22;2271;49.464;11.070;2023-06-22T08:39:21;28.90;99.90
4518;DHT22;2271;49.464;11.070;2023-06-22T08:41:48;28.90;99.90
4518;DHT22;2271;49.464;11.070;2023-06-22T08:44:13;29.00;99.90
4518;DHT22;2271;49.464;11.070;2023-06-22T08:46:39;29.20;99.90
4518;DHT22;2271;49.464;11.070;2023-06-22T08:49:06;29.30;99.90
4518;DHT22;2271;49.464;11.070;2023-06-22T08:51:32;29.40;99.90
4518;DHT22;2271;49.464;11.070;2023-06-22T08:53:58;29.40;99.90
4518;DHT22;2271;49.464;11.070;2023-06-22T08:56:23;29.40;99.90
4518;DHT22;2271;49.464;11.070;2023-06-22T08:58:49;29.40;99.90
4518;DHT22;2271;49.464;11.070;2023-06-22T09:01:15;29.40;99.90
4518;DHT22;2271;49.464;11.070;2023-06-22T09:03:43;29.40;99.90
4518;DHT22;2271;49.464;11.070;2023-06-22T09:06:08;29.40;99.90
4518;DHT22;2271;49.464;11.070;2023-06-22T09:08:39;29.50;99.90
4518;DHT22;2271;49.464;11.070;2023-06-22T09:11:04;29.50;99.90
4518;DHT22;2271;49.464;11.070;2023-06-22T09:13:30;29.70;99.90
4518;DHT22;2271;49.464;11.070;2023-06-22T09:15:57;29.80;99.90
4518;DHT22;2271;49.464;11.070;2023-06-22T09:18:22;29.80;99.90
4518;DHT22;2271;49.464;11.070;2023-06-22T09:20:48;29.70;99.90
4518;DHT22;2271;49.464;11.070;2023-06-22T09:23:14;29.70;99.90
4518;DHT22;2271;49.464;11.070;2023-06-22T09:25:40;29.80;99.90
4518;DHT22;2271;49.464;11.070;2023-06-22T09:28:06;29.70;99.90
4518;DHT22;2271;49.464;11.070;2023-06-22T09:30:33;29.80;99.90
4518;DHT22;2271;49.464;11.070;2023-06-22T09:32:59;30.00;99.90
4518;DHT22;2271;49.464;11.070;2023-06-22T09:35:26;30.10;99.90
4518;DHT22;2271;49.464;11.070;2023-06-22T09:37:52;30.00;99.90
4518;DHT22;2271;49.464;11.070;2023-06-22T09:40:17;30.10;99.90
4518;DHT22;2271;49.464;11.070;2023-06-22T09:42:43;30.00;99.90
4518;DHT22;2271;49.464;11.070;2023-06-22T09:45:09;29.90;99.90
4518;DHT22;2271;49.464;11.070;2023-06-22T09:47:35;30.00;99.90
4518;DHT22;2271;49.464;11.070;2023-06-22T09:50:01;30.00;99.90
4518;DHT22;2271;49.464;11.070;2023-06-22T09:52:27;30.10;99.90
4518;DHT22;2271;49.464;11.070;2023-06-22T09:54:52;30.20;99.90
4518;DHT22;2271;49.464;11.070;2023-06-22T09:57:18;30.20;99.90
4518;DHT22;2271;49.464;11.070;2023-06-22T09:59:44;30.40;99.90
4518;DHT22;2271;49.464;11.070;2023-06-22T10:02:09;30.40;99.90
4518;DHT22;2271;49.464;11.070;2023-06-22T10:04:35;30.50;99.90
4518;DHT22;2271;49.464;11.070;2023-06-22T10:07:02;30.40;99.90
4518;DHT22;2271;49.464;11.070;2023-06-22T10:09:27;30.40;99.90
4518;DHT22;2271;49.464;11.070;2023-06-22T10:11:53;30.40;99.90
4518;DHT22;2271;49.464;11.070;2023-06-22T10:14:19;30.40;99.90
4518;DHT22;2271;49.464;11.070;2023-06-22T10:16:45;30.40;99.90
4518;DHT22;2271;49.464;11.070;2023-06-22T10:19:11;30.50;99.90
4518;DHT22;2271;49.464;11.070;2023-06-22T10:21:36;30.60;99.90
4518;DHT22;2271;49.464;11.070;2023-06-22T10:24:02;30.50;99.90
4518;DHT22;2271;49.464;11.070;2023-06-22T10:26:32;30.50;99.90
4518;DHT22;2271;49.464;11.070;2023-06-22T10:28:59;30.60;99.90
4518;DHT22;2271;49.464;11.070;2023-06-22T10:31:25;30.60;99.90
4518;DHT22;2271;49.464;11.070;2023-06-22T10:33:50;30.80;99.90
4518;DHT22;2271;49.464;11.070;2023-06-22T10:36:16;31.20;99.90
4518;DHT22;2271;49.464;11.070;2023-06-22T10:38:42;31.50;99.90
4518;DHT22;2271;49.464;11.070;2023-06-22T10:41:07;31.50;99.90
4518;DHT22;2271;49.464;11.070;2023-06-22T10:43:33;31.50;99.90
4518;DHT22;2271;49.464;11.070;2023-06-22T10:45:58;31.60;99.90
4518;DHT22;2271;49.464;11.070;2023-06-22T10:48:24;31.50;99.90
4518;DHT22;2271;49.464;11.070;2023-06-22T10:50:50;31.60;99.90
4518;DHT22;2271;49.464;11.070;2023-06-22T10:53:15;31.70;99.90
4518;DHT22;2271;49.464;11.070;2023-06-22T10:55:41;31.80;99.90
4518;DHT22;2271;49.464;11.070;2023-06-22T10:58:06;32.10;99.90
4518;DHT22;2271;49.464;11.070;2023-06-22T11:00:32;32.10;99.90
4518;DHT22;2271;49.464;11.070;2023-06-22T11:02:58;32.00;99.90
4518;DHT22;2271;49.464;11.070;2023-06-22T11:05:24;32.00;99.90
4518;DHT22;2271;49.464;11.070;2023-06-22T11:07:49;32.00;99.90
4518;DHT22;2271;49.464;11.070;2023-06-22T11:10:16;31.90;99.90
4518;DHT22;2271;49.464;11.070;2023-06-22T11:12:41;31.70;99.90
4518;DHT22;2271;49.464;11.070;2023-06-22T11:15:09;31.80;99.90
4518;DHT22;2271;49.464;11.070;2023-06-22T11:17:35;32.00;99.90
4518;DHT22;2271;49.464;11.070;2023-06-22T11:20:01;32.20;99.90
4518;DHT22;2271;49.464;11.070;2023-06-22T11:22:29;32.20;99.90
4518;DHT22;2271;49.464;11.070;2023-06-22T11:24:59;32.20;99.90
4518;DHT22;2271;49.464;11.070;2023-06-22T11:27:24;32.40;99.90
4518;DHT22;2271;49.464;11.070;2023-06-22T11:29:50;32.60;99.90
4518;DHT22;2271;49.464;11.070;2023-06-22T11:32:18;32.70;99.90
4518;DHT22;2271;49.464;11.070;2023-06-22T11:34:43;32.70;99.90
4518;DHT22;2271;49.464;11.070;2023-06-22T11:37:09;32.30;99.90
4518;DHT22;2271;49.464;11.070;2023-06-22T11:39:35;32.20;99.90
4518;DHT22;2271;49.464;11.070;2023-06-22T11:42:00;32.30;99.90
4518;DHT22;2271;49.464;11.070;2023-06-22T11:44:26;32.40;99.90
4518;DHT22;2271;49.464;11.070;2023-06-22T11:46:51;32.40;99.90
4518;DHT22;2271;49.464;11.070;2023-06-22T11:49:17;32.40;99.90
4518;DHT22;2271;49.464;11.070;2023-06-22T11:51:43;32.40;99.90
4518;DHT22;2271;49.464;11.070;2023-06-22T11:54:08;32.40;99.90
4518;DHT22;2271;49.464;11.070;2023-06-22T11:56:34;32.40;99.90
4518;DHT22;2271;49.464;11.070;2023-06-22T11:59:00;32.40;99.90
4518;DHT22;2271;49.464;11.070;2023-06-22T12:01:25;32.50;99.90
4518;DHT22;2271;49.464;11.070;2023-06-22T12:03:51;32.50;99.90
4518;DHT22;2271;49.464;11.070;2023-06-22T12:06:17;32.50;99.90
4518;DHT22;2271;49.464;11.070;2023-06-22T12:08:42;32.60;99.90
4518;DHT22;2271;49.464;11.070;2023-06-22T12:11:08;32.80;99.90
4518;DHT22;2271;49.464;11.070;2023-06-22T12:13:34;32.80;99.90
4518;DHT22;2271;49.464;11.070;2023-06-22T12:15:59;32.60;99.90
4518;DHT22;2271;49.464;11.070;2023-06-22T12:18:25;32.60;99.90
4518;DHT22;2271;49.464;11.070;2023-06-22T12:20:51;32.60;99.90
4518;DHT22;2271;49.464;11.070;2023-06-22T12:23:16;32.70;99.90
4518;DHT22;2271;49.464;11.070;2023-06-22T12:25:42;32.50;99.90
4518;DHT22;2271;49.464;11.070;2023-06-22T12:28:08;32.40;99.90
4518;DHT22;2271;49.464;11.070;2023-06-22T12:30:33;32.70;99.90
4518;DHT22;2271;49.464;11.070;2023-06-22T12:32:59;32.80;99.90
4518;DHT22;2271;49.464;11.070;2023-06-22T12:35:25;32.80;99.90
4518;DHT22;2271;49.464;11.070;2023-06-22T12:37:50;32.60;99.90
4518;DHT22;2271;49.464;11.070;2023-06-22T12:40:16;32.50;99.90
4518;DHT22;2271;49.464;11.070;2023-06-22T12:42:42;32.60;99.90
4518;DHT22;2271;49.464;11.070;2023-06-22T12:45:08;32.80;99.90
4518;DHT22;2271;49.464;11.070;2023-06-22T12:47:34;32.80;99.90
4518;DHT22;2271;49.464;11.070;2023-06-22T12:50:01;33.00;99.90
4518;DHT22;2271;49.464;11.070;2023-06-22T12:52:27;32.80;99.90
4518;DHT22;2271;49.464;11.070;2023-06-22T12:54:52;32.90;99.90
4518;DHT22;2271;49.464;11.070;2023-06-22T12:57:19;32.90;99.90
4518;DHT22;2271;49.464;11.070;2023-06-22T12:59:45;32.90;99.90
4518;DHT22;2271;49.464;11.070;2023-06-22T13:02:10;33.00;99.90
4518;DHT22;2271;49.464;11.070;2023-06-22T13:04:36;33.00;99.90
4518;DHT22;2271;49.464;11.070;2023-06-22T13:07:02;32.90;99.90
4518;DHT22;2271;49.464;11.070;2023-06-22T13:09:28;32.80;99.90
4518;DHT22;2271;49.464;11.070;2023-06-22T13:11:53;32.50;99.90
4518;DHT22;2271;49.464;11.070;2023-06-22T13:14:19;32.30;99.90
4518;DHT22;2271;49.464;11.070;2023-06-22T13:16:45;32.20;99.90
4518;DHT22;2271;49.464;11.070;2023-06-22T13:19:10;32.30;99.90
4518;DHT22;2271;49.464;11.070;2023-06-22T13:21:36;32.30;99.90
4518;DHT22;2271;49.464;11.070;2023-06-22T13:24:02;32.50;99.90
4518;DHT22;2271;49.464;11.070;2023-06-22T13:26:28;32.70;99.90
4518;DHT22;2271;49.464;11.070;2023-06-22T13:28:54;32.80;99.90
4518;DHT22;2271;49.464;11.070;2023-06-22T13:31:20;32.80;99.90
4518;DHT22;2271;49.464;11.070;2023-06-22T13:33:46;32.90;99.90
4518;DHT22;2271;49.464;11.070;2023-06-22T13:36:13;32.80;99.90
4518;DHT22;2271;49.464;11.070;2023-06-22T13:38:39;32.80;99.90
4518;DHT22;2271;49.464;11.070;2023-06-22T13:41:05;32.80;99.90
4518;DHT22;2271;49.464;11.070;2023-06-22T13:43:31;32.60;99.90
4518;DHT22;2271;49.464;11.070;2023-06-22T13:45:57;32.40;99.90
4518;DHT22;2271;49.464;11.070;2023-06-22T13:48:23;32.30;99.90
4518;DHT22;2271;49.464;11.070;2023-06-22T13:50:51;32.20;99.90
4518;DHT22;2271;49.464;11.070;2023-06-22T13:53:17;32.10;99.90
4518;DHT22;2271;49.464;11.070;2023-06-22T13:55:42;32.10;99.90
4518;DHT22;2271;49.464;11.070;2023-06-22T13:58:08;32.20;99.90
4518;DHT22;2271;49.464;11.070;2023-06-22T14:00:34;32.40;99.90
4518;DHT22;2271;49.464;11.070;2023-06-22T14:02:59;32.50;99.90
4518;DHT22;2271;49.464;11.070;2023-06-22T14:05:25;32.60;99.90
4518;DHT22;2271;49.464;11.070;2023-06-22T14:07:50;32.60;99.90
4518;DHT22;2271;49.464;11.070;2023-06-22T14:10:16;32.40;99.90
4518;DHT22;2271;49.464;11.070;2023-06-22T14:12:42;32.30;99.90
4518;DHT22;2271;49.464;11.070;2023-06-22T14:15:07;32.30;99.90
4518;DHT22;2271;49.464;11.070;2023-06-22T14:17:33;32.30;99.90
4518;DHT22;2271;49.464;11.070;2023-06-22T14:19:59;32.30;99.90
4518;DHT22;2271;49.464;11.070;2023-06-22T14:22:25;32.20;99.90
4518;DHT22;2271;49.464;11.070;2023-06-22T14:24:52;32.10;99.90
4518;DHT22;2271;49.464;11.070;2023-06-22T14:27:18;32.10;99.90
4518;DHT22;2271;49.464;11.070;2023-06-22T14:29:43;32.10;99.90
4518;DHT22;2271;49.464;11.070;2023-06-22T14:32:09;32.10;99.90
4518;DHT22;2271;49.464;11.070;2023-06-22T14:34:35;32.10;99.90
4518;DHT22;2271;49.464;11.070;2023-06-22T14:37:07;32.20;99.90
4518;DHT22;2271;49.464;11.070;2023-06-22T14:39:35;32.30;99.90
4518;DHT22;2271;49.464;11.070;2023-06-22T14:42:01;32.40;99.90
4518;DHT22;2271;49.464;11.070;2023-06-22T14:44:28;32.30;99.90
4518;DHT22;2271;49.464;11.070;2023-06-22T14:46:57;32.30;99.90
4518;DHT22;2271;49.464;11.070;2023-06-22T14:49:23;32.20;99.90
4518;DHT22;2271;49.464;11.070;2023-06-22T14:51:49;32.10;99.90
4518;DHT22;2271;49.464;11.070;2023-06-22T14:54:14;32.10;99.90
4518;DHT22;2271;49.464;11.070;2023-06-22T14:56:40;32.10;99.90
4518;DHT22;2271;49.464;11.070;2023-06-22T14:59:06;32.10;99.90
4518;DHT22;2271;49.464;11.070;2023-06-22T15:01:32;32.20;99.90
4518;DHT22;2271;49.464;11.070;2023-06-22T15:03:57;32.20;99.90
4518;DHT22;2271;49.464;11.070;2023-06-22T15:06:23;32.20;99.90
4518;DHT22;2271;49.464;11.070;2023-06-22T15:08:48;32.20;99.90
4518;DHT22;2271;49.464;11.070;2023-06-22T15:11:14;32.20;99.90
4518;DHT22;2271;49.464;11.070;2023-06-22T15:13:40;32.10;99.90
4518;DHT22;2271;49.464;11.070;2023-06-22T15:16:07;32.20;99.90
4518;DHT22;2271;49.464;11.070;2023-06-22T15:18:34;32.20;99.90
4518;DHT22;2271;49.464;11.070;2023-06-22T15:21:01;32.20;99.90
4518;DHT22;2271;49.464;11.070;2023-06-22T15:23:29;32.20;99.90
4518;DHT22;2271;49.464;11.070;2023-06-22T15:25:56;32.30;99.90
4518;DHT22;2271;49.464;11.070;2023-06-22T15:28:21;32.30;99.90
4518;DHT22;2271;49.464;11.070;2023-06-22T15:30:50;32.30;99.90
4518;DHT22;2271;49.464;11.070;2023-06-22T15:33:15;32.30;99.90
4518;DHT22;2271;49.464;11.070;2023-06-22T15:35:41;32.30;99.90
4518;DHT22;2271;49.464;11.070;2023-06-22T15:38:07;32.30;99.90
4518;DHT22;2271;49.464;11.070;2023-06-22T15:40:33;32.30;99.90
4518;DHT22;2271;49.464;11.070;2023-06-22T15:42:58;32.30;99.90